sensor_id;sensor_type;location;lat;lon;timestamp;P1;P2;P0
74434;PMS7003;62867;52.038;29.256;2024-02-16T00:04:45;0;0;0
74434;PMS7003;62867;52.038;29.256;2024-02-16T00:09:47;0;0;0
74434;PMS7003;62867;52.038;29.256;2024-02-16T00:14:47;0;0;0
74434;PMS7003;62867;52.038;29.256;2024-02-16T00:19:45;0;0;0
74434;PMS7003;62867;52.038;29.256;2024-02-16T00:24:47;0;0;0
74434;PMS7003;62867;52.038;29.256;2024-02-16T00:29:11;0;0;0
74434;PMS7003;62867;52.038;29.256;2024-02-16T00:34:57;0;0;0
74434;PMS7003;62867;52.038;29.256;2024-02-16T00:39:19;0;0;0
74434;PMS7003;62867;52.038;29.256;2024-02-16T00:44:57;0;0;0
74434;PMS7003;62867;52.038;29.256;2024-02-16T00:49:58;0;0;0
74434;PMS7003;62867;52.038;29.256;2024-02-16T00:54:11;0;0;0
74434;PMS7003;62867;52.038;29.256;2024-02-16T00:59:11;0;0;0
74434;PMS7003;62867;52.038;29.256;2024-02-16T01:04:47;0;0;0
74434;PMS7003;62867;52.038;29.256;2024-02-16T01:09:17;0;0;0
74434;PMS7003;62867;52.038;29.256;2024-02-16T01:14:11;0;0;0
74434;PMS7003;62867;52.038;29.256;2024-02-16T01:19:57;0;0;0
74434;PMS7003;62867;52.038;29.256;2024-02-16T01:24:21;0;0;0
74434;PMS7003;62867;52.038;29.256;2024-02-16T01:29:57;0;0;0
74434;PMS7003;62867;52.038;29.256;2024-02-16T01:34:19;0;0;0
74434;PMS7003;62867;52.038;29.256;2024-02-16T01:39:57;0;0;0
74434;PMS7003;62867;52.038;29.256;2024-02-16T01:44:17;0;0;0
74434;PMS7003;62867;52.038;29.256;2024-02-16T01:49:29;0;0;0
74434;PMS7003;62867;52.038;29.256;2024-02-16T01:54:57;0;0;0
74434;PMS7003;62867;52.038;29.256;2024-02-16T01:59:39;0;0;0
74434;PMS7003;62867;52.038;29.256;2024-02-16T02:04:43;0;0;0
74434;PMS7003;62867;52.038;29.256;2024-02-16T02:09:57;0;0;0
74434;PMS7003;62867;52.038;29.256;2024-02-16T02:14:57;0;0;0
74434;PMS7003;62867;52.038;29.256;2024-02-16T02:19:19;0;0;0
74434;PMS7003;62867;52.038;29.256;2024-02-16T02:24:27;0;0;0
74434;PMS7003;62867;52.038;29.256;2024-02-16T02:29:31;0;0;0
74434;PMS7003;62867;52.038;29.256;2024-02-16T02:34:35;0;0;0
74434;PMS7003;62867;52.038;29.256;2024-02-16T02:39:11;0;0;0
74434;PMS7003;62867;52.038;29.256;2024-02-16T02:44:29;0;0;0
74434;PMS7003;62867;52.038;29.256;2024-02-16T02:49:11;0;0;0
74434;PMS7003;62867;52.038;29.256;2024-02-16T02:54:27;0;0;0
74434;PMS7003;62867;52.038;29.256;2024-02-16T02:59:27;0;0;0
74434;PMS7003;62867;52.038;29.256;2024-02-16T03:04:57;0;0;0
74434;PMS7003;62867;52.038;29.256;2024-02-16T03:09:37;0;0;0
74434;PMS7003;62867;52.038;29.256;2024-02-16T03:14:11;0;0;0
74434;PMS7003;62867;52.038;29.256;2024-02-16T03:19:51;0;0;0
74434;PMS7003;62867;52.038;29.256;2024-02-16T03:24:19;0;0;0
74434;PMS7003;62867;52.038;29.256;2024-02-16T03:29:57;0;0;0
74434;PMS7003;62867;52.038;29.256;2024-02-16T03:34:57;0;0;0
74434;PMS7003;62867;52.038;29.256;2024-02-16T03:39:45;0;0;0
74434;PMS7003;62867;52.038;29.256;2024-02-16T03:44:57;0;0;0
74434;PMS7003;62867;52.038;29.256;2024-02-16T03:49:57;0;0;0
74434;PMS7003;62867;52.038;29.256;2024-02-16T03:54:37;0;0;0
74434;PMS7003;62867;52.038;29.256;2024-02-16T03:59:57;0;0;0
74434;PMS7003;62867;52.038;29.256;2024-02-16T04:04:11;0;0;0
74434;PMS7003;62867;52.038;29.256;2024-02-16T04:09:35;0;0;0
74434;PMS7003;62867;52.038;29.256;2024-02-16T04:14:17;0;0;0
74434;PMS7003;62867;52.038;29.256;2024-02-16T04:19:47;0;0;0
74434;PMS7003;62867;52.038;29.256;2024-02-16T04:24:11;0;0;0
74434;PMS7003;62867;52.038;29.256;2024-02-16T04:29:17;0;0;0
74434;PMS7003;62867;52.038;29.256;2024-02-16T04:34:21;0;0;0
74434;PMS7003;62867;52.038;29.256;2024-02-16T04:39:47;0;0;0
74434;PMS7003;62867;52.038;29.256;2024-02-16T04:44:23;0;0;0
74434;PMS7003;62867;52.038;29.256;2024-02-16T04:49:27;0;0;0
74434;PMS7003;62867;52.038;29.256;2024-02-16T04:54:57;0;0;0
74434;PMS7003;62867;52.038;29.256;2024-02-16T04:59:47;0;0;0
74434;PMS7003;62867;52.038;29.256;2024-02-16T05:04:13;0;0;0
74434;PMS7003;62867;52.038;29.256;2024-02-16T05:09:23;0;0;0
74434;PMS7003;62867;52.038;29.256;2024-02-16T05:14:47;0;0;0
74434;PMS7003;62867;52.038;29.256;2024-02-16T05:19:11;0;0;0
74434;PMS7003;62867;52.038;29.256;2024-02-16T05:24:59;0;0;0
74434;PMS7003;62867;52.038;29.256;2024-02-16T05:29:31;0;0;0
74434;PMS7003;62867;52.038;29.256;2024-02-16T05:34:47;0;0;0
74434;PMS7003;62867;52.038;29.256;2024-02-16T05:39:39;0;0;0
74434;PMS7003;62867;52.038;29.256;2024-02-16T05:44:59;0;0;0
74434;PMS7003;62867;52.038;29.256;2024-02-16T05:49:27;0;0;0
74434;PMS7003;62867;52.038;29.256;2024-02-16T05:54:11;0;0;0
74434;PMS7003;62867;52.038;29.256;2024-02-16T05:59:11;0;0;0
74434;PMS7003;62867;52.038;29.256;2024-02-16T06:04:11;0;0;0
74434;PMS7003;62867;52.038;29.256;2024-02-16T06:09:30;0;0;0
74434;PMS7003;62867;52.038;29.256;2024-02-16T06:14:59;0.2;0;0
74434;PMS7003;62867;52.038;29.256;2024-02-16T06:19:59;0;0;0
74434;PMS7003;62867;52.038;29.256;2024-02-16T06:24:21;0;0;0
74434;PMS7003;62867;52.038;29.256;2024-02-16T06:29:49;0;0;0
74434;PMS7003;62867;52.038;29.256;2024-02-16T06:34:29;0;0;0
74434;PMS7003;62867;52.038;29.256;2024-02-16T06:39:22;0;0;0
74434;PMS7003;62867;52.038;29.256;2024-02-16T06:44:37;0;0;0
74434;PMS7003;62867;52.038;29.256;2024-02-16T06:49:13;0;0;0
74434;PMS7003;62867;52.038;29.256;2024-02-16T06:54:37;0;0;0
74434;PMS7003;62867;52.038;29.256;2024-02-16T06:59:49;0;0;0
74434;PMS7003;62867;52.038;29.256;2024-02-16T07:04:19;0;0;0
74434;PMS7003;62867;52.038;29.256;2024-02-16T07:09:57;0;0;0
74434;PMS7003;62867;52.038;29.256;2024-02-16T07:14:11;0;0;0
74434;PMS7003;62867;52.038;29.256;2024-02-16T07:19:39;0;0;0
74434;PMS7003;62867;52.038;29.256;2024-02-16T07:24:59;0;0;0
74434;PMS7003;62867;52.038;29.256;2024-02-16T07:29:29;0;0;0
74434;PMS7003;62867;52.038;29.256;2024-02-16T07:34:31;0;0;0
74434;PMS7003;62867;52.038;29.256;2024-02-16T07:39:11;0;0;0
74434;PMS7003;62867;52.038;29.256;2024-02-16T07:44:11;0;0;0
74434;PMS7003;62867;52.038;29.256;2024-02-16T07:49:31;0;0;0
74434;PMS7003;62867;52.038;29.256;2024-02-16T07:55:00;0;0;0
74434;PMS7003;62867;52.038;29.256;2024-02-16T07:59:21;0;0;0
74434;PMS7003;62867;52.038;29.256;2024-02-16T08:04:49;0;0;0
74434;PMS7003;62867;52.038;29.256;2024-02-16T08:09:19;0;0;0
74434;PMS7003;62867;52.038;29.256;2024-02-16T08:14:47;0;0;0
74434;PMS7003;62867;52.038;29.256;2024-02-16T08:19:38;0;0;0
74434;PMS7003;62867;52.038;29.256;2024-02-16T08:24:49;0;0;0
74434;PMS7003;62867;52.038;29.256;2024-02-16T08:29:11;0;0;0
74434;PMS7003;62867;52.038;29.256;2024-02-16T08:34:49;0;0;0
74434;PMS7003;62867;52.038;29.256;2024-02-16T08:39:28;0;0;0
74434;PMS7003;62867;52.038;29.256;2024-02-16T08:44:59;0;0;0
74434;PMS7003;62867;52.038;29.256;2024-02-16T08:49:11;0;0;0
74434;PMS7003;62867;52.038;29.256;2024-02-16T08:54:39;0;0;0
74434;PMS7003;62867;52.038;29.256;2024-02-16T08:59:59;0;0;0
74434;PMS7003;62867;52.038;29.256;2024-02-16T09:04:39;0;0;0
74434;PMS7003;62867;52.038;29.256;2024-02-16T09:09:19;0;0;0
74434;PMS7003;62867;52.038;29.256;2024-02-16T09:14:11;0;0;0
74434;PMS7003;62867;52.038;29.256;2024-02-16T09:19:11;0;0;0
74434;PMS7003;62867;52.038;29.256;2024-02-16T09:24:11;0;0;0
74434;PMS7003;62867;52.038;29.256;2024-02-16T09:29:59;0;0;0
74434;PMS7003;62867;52.038;29.256;2024-02-16T09:34:11;0;0;0
74434;PMS7003;62867;52.038;29.256;2024-02-16T09:40:00;0;0;0
74434;PMS7003;62867;52.038;29.256;2024-02-16T09:44:22;0;0;0
74434;PMS7003;62867;52.038;29.256;2024-02-16T09:49:59;0;0;0
74434;PMS7003;62867;52.038;29.256;2024-02-16T09:54:19;0;0;0
74434;PMS7003;62867;52.038;29.256;2024-02-16T09:59:49;0;0;0
74434;PMS7003;62867;52.038;29.256;2024-02-16T10:04:59;0;0;0
74434;PMS7003;62867;52.038;29.256;2024-02-16T10:09:59;0;0;0
74434;PMS7003;62867;52.038;29.256;2024-02-16T10:14:53;0;0;0
74434;PMS7003;62867;52.038;29.256;2024-02-16T10:19:59;0;0;0
74434;PMS7003;62867;52.038;29.256;2024-02-16T10:25:06;0;0;0
74434;PMS7003;62867;52.038;29.256;2024-02-16T10:29:39;0;0;0
74434;PMS7003;62867;52.038;29.256;2024-02-16T10:34:41;0;0;0
74434;PMS7003;62867;52.038;29.256;2024-02-16T10:39:25;0;0;0
74434;PMS7003;62867;52.038;29.256;2024-02-16T10:44:21;0;0;0
74434;PMS7003;62867;52.038;29.256;2024-02-16T10:49:41;0;0;0
74434;PMS7003;62867;52.038;29.256;2024-02-16T10:54:41;0;0;0
74434;PMS7003;62867;52.038;29.256;2024-02-16T10:59:47;0;0;0
74434;PMS7003;62867;52.038;29.256;2024-02-16T11:04:19;0;0;0
74434;PMS7003;62867;52.038;29.256;2024-02-16T11:09:30;0;0;0
74434;PMS7003;62867;52.038;29.256;2024-02-16T11:14:59;0;0;0
74434;PMS7003;62867;52.038;29.256;2024-02-16T11:19:13;0;0;0
74434;PMS7003;62867;52.038;29.256;2024-02-16T11:24:30;0;0;0
74434;PMS7003;62867;52.038;29.256;2024-02-16T11:29:59;0;0;0
74434;PMS7003;62867;52.038;29.256;2024-02-16T11:34:49;0;0;0
74434;PMS7003;62867;52.038;29.256;2024-02-16T11:39:13;0;0;0
74434;PMS7003;62867;52.038;29.256;2024-02-16T11:44:50;0;0;0
74434;PMS7003;62867;52.038;29.256;2024-02-16T11:50:01;0;0;0
74434;PMS7003;62867;52.038;29.256;2024-02-16T11:54:43;0;0;0
74434;PMS7003;62867;52.038;29.256;2024-02-16T12:00:02;0;0;0
74434;PMS7003;62867;52.038;29.256;2024-02-16T12:04:20;0;0;0
74434;PMS7003;62867;52.038;29.256;2024-02-16T12:09:54;0;0;0
74434;PMS7003;62867;52.038;29.256;2024-02-16T12:14:27;0;0;0
74434;PMS7003;62867;52.038;29.256;2024-02-16T12:19:11;0;0;0
74434;PMS7003;62867;52.038;29.256;2024-02-16T12:24:57;0;0;0
74434;PMS7003;62867;52.038;29.256;2024-02-16T12:29:38;0.2;0.2;0
74434;PMS7003;62867;52.038;29.256;2024-02-16T12:34:47;0.8;0.8;0.6
74434;PMS7003;62867;52.038;29.256;2024-02-16T12:39:57;0.6;0.6;0.4
74434;PMS7003;62867;52.038;29.256;2024-02-16T12:44:29;1.2;1;0.8
74434;PMS7003;62867;52.038;29.256;2024-02-16T12:49:57;1.4;1.4;1
74434;PMS7003;62867;52.038;29.256;2024-02-16T12:54:39;2.6;2.6;2.6
74434;PMS7003;62867;52.038;29.256;2024-02-16T12:59:21;0.8;0.8;0.8
74434;PMS7003;62867;52.038;29.256;2024-02-16T13:04:59;0.8;0.8;0.6
74434;PMS7003;62867;52.038;29.256;2024-02-16T13:09:49;0.4;0.4;0.2
74434;PMS7003;62867;52.038;29.256;2024-02-16T13:14:47;0;0;0
74434;PMS7003;62867;52.038;29.256;2024-02-16T13:19:37;0;0;0
74434;PMS7003;62867;52.038;29.256;2024-02-16T13:24:47;0;0;0
74434;PMS7003;62867;52.038;29.256;2024-02-16T13:29:37;0;0;0
74434;PMS7003;62867;52.038;29.256;2024-02-16T13:34:59;0;0;0
74434;PMS7003;62867;52.038;29.256;2024-02-16T13:39:11;0.4;0;0
74434;PMS7003;62867;52.038;29.256;2024-02-16T13:44:59;0;0;0
74434;PMS7003;62867;52.038;29.256;2024-02-16T13:49:39;0;0;0
74434;PMS7003;62867;52.038;29.256;2024-02-16T13:54:59;0;0;0
74434;PMS7003;62867;52.038;29.256;2024-02-16T13:59:11;0.3;0;0
74434;PMS7003;62867;52.038;29.256;2024-02-16T14:04:29;0;0;0
74434;PMS7003;62867;52.038;29.256;2024-02-16T14:09:11;0;0;0
74434;PMS7003;62867;52.038;29.256;2024-02-16T14:14:29;0;0;0
74434;PMS7003;62867;52.038;29.256;2024-02-16T14:19:19;0;0;0
74434;PMS7003;62867;52.038;29.256;2024-02-16T14:24:57;0;0;0
74434;PMS7003;62867;52.038;29.256;2024-02-16T14:29:59;0.2;0;0
74434;PMS7003;62867;52.038;29.256;2024-02-16T14:34:19;0;0;0
74434;PMS7003;62867;52.038;29.256;2024-02-16T14:39:21;0;0;0
74434;PMS7003;62867;52.038;29.256;2024-02-16T14:44:29;0;0;0
74434;PMS7003;62867;52.038;29.256;2024-02-16T14:49:47;0;0;0
74434;PMS7003;62867;52.038;29.256;2024-02-16T14:54:19;0;0;0
74434;PMS7003;62867;52.038;29.256;2024-02-16T14:59:29;0;0;0
74434;PMS7003;62867;52.038;29.256;2024-02-16T15:04:11;0.2;0.2;0
74434;PMS7003;62867;52.038;29.256;2024-02-16T15:09:49;0.4;0.4;0.4
74434;PMS7003;62867;52.038;29.256;2024-02-16T15:14:11;0.2;0;0
74434;PMS7003;62867;52.038;29.256;2024-02-16T15:20:00;0;0;0
74434;PMS7003;62867;52.038;29.256;2024-02-16T15:24:19;0;0;0
74434;PMS7003;62867;52.038;29.256;2024-02-16T15:29:39;0;0;0
74434;PMS7003;62867;52.038;29.256;2024-02-16T15:34:59;0;0;0
74434;PMS7003;62867;52.038;29.256;2024-02-16T15:39:29;0;0;0
74434;PMS7003;62867;52.038;29.256;2024-02-16T15:44:27;0;0;0
74434;PMS7003;62867;52.038;29.256;2024-02-16T15:49:41;0;0;0
74434;PMS7003;62867;52.038;29.256;2024-02-16T15:54:29;0;0;0
74434;PMS7003;62867;52.038;29.256;2024-02-16T15:59:11;0;0;0
74434;PMS7003;62867;52.038;29.256;2024-02-16T16:05:01;0;0;0
74434;PMS7003;62867;52.038;29.256;2024-02-16T16:09:29;0;0;0
74434;PMS7003;62867;52.038;29.256;2024-02-16T16:15:02;0;0;0
74434;PMS7003;62867;52.038;29.256;2024-02-16T16:19:42;0;0;0
74434;PMS7003;62867;52.038;29.256;2024-02-16T16:25:02;0;0;0
74434;PMS7003;62867;52.038;29.256;2024-02-16T16:29:38;0;0;0
74434;PMS7003;62867;52.038;29.256;2024-02-16T16:34:52;0;0;0
74434;PMS7003;62867;52.038;29.256;2024-02-16T16:40:02;0;0;0
74434;PMS7003;62867;52.038;29.256;2024-02-16T16:44:52;0;0;0
74434;PMS7003;62867;52.038;29.256;2024-02-16T16:49:42;0;0;0
74434;PMS7003;62867;52.038;29.256;2024-02-16T16:55:02;0;0;0
74434;PMS7003;62867;52.038;29.256;2024-02-16T16:59:28;0;0;0
74434;PMS7003;62867;52.038;29.256;2024-02-16T17:04:42;0;0;0
74434;PMS7003;62867;52.038;29.256;2024-02-16T17:10:02;0;0;0
74434;PMS7003;62867;52.038;29.256;2024-02-16T17:14:20;0;0;0
74434;PMS7003;62867;52.038;29.256;2024-02-16T17:19:40;0;0;0
74434;PMS7003;62867;52.038;29.256;2024-02-16T17:24:12;0;0;0
74434;PMS7003;62867;52.038;29.256;2024-02-16T17:29:11;0;0;0
74434;PMS7003;62867;52.038;29.256;2024-02-16T17:34:20;0;0;0
74434;PMS7003;62867;52.038;29.256;2024-02-16T17:39:30;0;0;0
74434;PMS7003;62867;52.038;29.256;2024-02-16T17:44:12;0;0;0
74434;PMS7003;62867;52.038;29.256;2024-02-16T17:50:02;0;0;0
74434;PMS7003;62867;52.038;29.256;2024-02-16T17:54:22;0;0;0
74434;PMS7003;62867;52.038;29.256;2024-02-16T18:00:02;0;0;0
74434;PMS7003;62867;52.038;29.256;2024-02-16T18:04:38;0;0;0
74434;PMS7003;62867;52.038;29.256;2024-02-16T18:09:24;0;0;0
74434;PMS7003;62867;52.038;29.256;2024-02-16T18:15:02;0;0;0
74434;PMS7003;62867;52.038;29.256;2024-02-16T18:20:02;0;0;0
74434;PMS7003;62867;52.038;29.256;2024-02-16T18:24:48;0;0;0
74434;PMS7003;62867;52.038;29.256;2024-02-16T18:30:02;0;0;0
74434;PMS7003;62867;52.038;29.256;2024-02-16T18:35:02;0;0;0
74434;PMS7003;62867;52.038;29.256;2024-02-16T18:39:43;0;0;0
74434;PMS7003;62867;52.038;29.256;2024-02-16T18:44:40;0;0;0
74434;PMS7003;62867;52.038;29.256;2024-02-16T18:49:13;0;0;0
74434;PMS7003;62867;52.038;29.256;2024-02-16T18:54:30;0;0;0
74434;PMS7003;62867;52.038;29.256;2024-02-16T18:59:20;0;0;0
74434;PMS7003;62867;52.038;29.256;2024-02-16T19:04:52;0;0;0
74434;PMS7003;62867;52.038;29.256;2024-02-16T19:09:54;0;0;0
74434;PMS7003;62867;52.038;29.256;2024-02-16T19:14:12;0;0;0
74434;PMS7003;62867;52.038;29.256;2024-02-16T19:19:32;0;0;0
74434;PMS7003;62867;52.038;29.256;2024-02-16T19:25:00;0;0;0
74434;PMS7003;62867;52.038;29.256;2024-02-16T19:29:42;0;0;0
74434;PMS7003;62867;52.038;29.256;2024-02-16T19:34:24;0;0;0
74434;PMS7003;62867;52.038;29.256;2024-02-16T19:40:02;0;0;0
74434;PMS7003;62867;52.038;29.256;2024-02-16T19:44:52;0;0;0
74434;PMS7003;62867;52.038;29.256;2024-02-16T19:49:48;0;0;0
74434;PMS7003;62867;52.038;29.256;2024-02-16T19:55:02;0;0;0
74434;PMS7003;62867;52.038;29.256;2024-02-16T19:59:48;0;0;0
74434;PMS7003;62867;52.038;29.256;2024-02-16T20:04:30;0;0;0
74434;PMS7003;62867;52.038;29.256;2024-02-16T20:10:02;0;0;0
74434;PMS7003;62867;52.038;29.256;2024-02-16T20:14:12;0;0;0
74434;PMS7003;62867;52.038;29.256;2024-02-16T20:19:48;0;0;0
74434;PMS7003;62867;52.038;29.256;2024-02-16T20:24:20;0;0;0
74434;PMS7003;62867;52.038;29.256;2024-02-16T20:30:02;0;0;0
74434;PMS7003;62867;52.038;29.256;2024-02-16T20:34:46;0;0;0
74434;PMS7003;62867;52.038;29.256;2024-02-16T20:39:20;0;0;0
74434;PMS7003;62867;52.038;29.256;2024-02-16T20:44:28;0;0;0
74434;PMS7003;62867;52.038;29.256;2024-02-16T20:49:32;0;0;0
74434;PMS7003;62867;52.038;29.256;2024-02-16T20:54:26;0;0;0
74434;PMS7003;62867;52.038;29.256;2024-02-16T21:00:02;0;0;0
74434;PMS7003;62867;52.038;29.256;2024-02-16T21:04:42;0.2;0;0
74434;PMS7003;62867;52.038;29.256;2024-02-16T21:10:02;0;0;0
74434;PMS7003;62867;52.038;29.256;2024-02-16T21:15:02;0.2;0;0
74434;PMS7003;62867;52.038;29.256;2024-02-16T21:19:52;0;0;0
74434;PMS7003;62867;52.038;29.256;2024-02-16T21:24:48;0;0;0
74434;PMS7003;62867;52.038;29.256;2024-02-16T21:29:38;0;0;0
74434;PMS7003;62867;52.038;29.256;2024-02-16T21:34:48;0;0;0
74434;PMS7003;62867;52.038;29.256;2024-02-16T21:39:30;0;0;0
74434;PMS7003;62867;52.038;29.256;2024-02-16T21:45:02;0;0;0
74434;PMS7003;62867;52.038;29.256;2024-02-16T21:49:20;0;0;0
74434;PMS7003;62867;52.038;29.256;2024-02-16T21:54:48;0;0;0
74434;PMS7003;62867;52.038;29.256;2024-02-16T21:59:28;0;0;0
74434;PMS7003;62867;52.038;29.256;2024-02-16T22:05:02;0;0;0
74434;PMS7003;62867;52.038;29.256;2024-02-16T22:09:20;0;0;0
74434;PMS7003;62867;52.038;29.256;2024-02-16T22:14:36;0;0;0
74434;PMS7003;62867;52.038;29.256;2024-02-16T22:19:46;0;0;0
74434;PMS7003;62867;52.038;29.256;2024-02-16T22:24:24;0;0;0
74434;PMS7003;62867;52.038;29.256;2024-02-16T22:29:20;0;0;0
74434;PMS7003;62867;52.038;29.256;2024-02-16T22:35:02;0;0;0
74434;PMS7003;62867;52.038;29.256;2024-02-16T22:40:02;0;0;0
74434;PMS7003;62867;52.038;29.256;2024-02-16T22:44:32;0;0;0
74434;PMS7003;62867;52.038;29.256;2024-02-16T22:49:40;0;0;0
74434;PMS7003;62867;52.038;29.256;2024-02-16T22:54:12;0;0;0
74434;PMS7003;62867;52.038;29.256;2024-02-16T22:59:50;0;0;0
74434;PMS7003;62867;52.038;29.256;2024-02-16T23:04:46;0;0;0
74434;PMS7003;62867;52.038;29.256;2024-02-16T23:09:50;0;0;0
74434;PMS7003;62867;52.038;29.256;2024-02-16T23:14:18;0;0;0
74434;PMS7003;62867;52.038;29.256;2024-02-16T23:19:38;0;0;0
74434;PMS7003;62867;52.038;29.256;2024-02-16T23:24:26;0;0;0
74434;PMS7003;62867;52.038;29.256;2024-02-16T23:30:00;0;0;0
74434;PMS7003;62867;52.038;29.256;2024-02-16T23:34:12;0;0;0
74434;PMS7003;62867;52.038;29.256;2024-02-16T23:39:34;0;0;0
74434;PMS7003;62867;52.038;29.256;2024-02-16T23:45:00;0;0;0
74434;PMS7003;62867;52.038;29.256;2024-02-16T23:49:22;0;0;0
74434;PMS7003;62867;52.038;29.256;2024-02-16T23:54:40;0;0;0
74434;PMS7003;62867;52.038;29.256;2024-02-16T23:59:24;0;0;0
